sensor_id;sensor_type;location;lat;lon;timestamp;pressure;altitude;pressure_sealevel;temperature;humidity
1207;BME280;593;53.184;8.216;2022-09-09T00:00:43;100392.75;;;17.76;100.00
1207;BME280;593;53.184;8.216;2022-09-09T00:03:24;100377.81;;;17.65;100.00
1207;BME280;593;53.184;8.216;2022-09-09T00:05:57;100386.31;;;17.72;100.00
1207;BME280;593;53.184;8.216;2022-09-09T00:08:44;100373.44;;;17.64;100.00
1207;BME280;593;53.184;8.216;2022-09-09T00:11:13;100393.31;;;17.70;100.00
1207;BME280;593;53.184;8.216;2022-09-09T00:13:48;100381.69;;;17.64;100.00
1207;BME280;593;53.184;8.216;2022-09-09T00:16:25;100377.66;;;17.62;100.00
1207;BME280;593;53.184;8.216;2022-09-09T00:21:33;100352.22;;;17.44;100.00
1207;BME280;593;53.184;8.216;2022-09-09T00:23:58;100376.75;;;17.58;100.00
1207;BME280;593;53.184;8.216;2022-09-09T00:26:35;100384.31;;;17.61;100.00
1207;BME280;593;53.184;8.216;2022-09-09T00:31:38;100385.31;;;17.56;100.00
1207;BME280;593;53.184;8.216;2022-09-09T00:34:12;100350.69;;;17.35;100.00
1207;BME280;593;53.184;8.216;2022-09-09T00:36:39;100381.13;;;17.50;100.00
1207;BME280;593;53.184;8.216;2022-09-09T00:39:13;100383.75;;;17.47;100.00
1207;BME280;593;53.184;8.216;2022-09-09T00:42:11;100395.19;;;17.49;100.00
1207;BME280;593;53.184;8.216;2022-09-09T00:44:49;100378.78;;;17.40;100.00
1207;BME280;593;53.184;8.216;2022-09-09T00:53:05;100374.56;;;17.43;100.00
1207;BME280;593;53.184;8.216;2022-09-09T00:55:41;100378.78;;;17.40;100.00
1207;BME280;593;53.184;8.216;2022-09-09T00:58:10;100374.59;;;17.34;100.00
1207;BME280;593;53.184;8.216;2022-09-09T01:00:42;100375.56;;;17.38;100.00
1207;BME280;593;53.184;8.216;2022-09-09T01:03:21;100362.34;;;17.31;100.00
1207;BME280;593;53.184;8.216;2022-09-09T01:06:30;100387.69;;;17.37;100.00
1207;BME280;593;53.184;8.216;2022-09-09T01:09:18;100375.78;;;17.33;100.00
1207;BME280;593;53.184;8.216;2022-09-09T01:12:16;100381.72;;;17.35;100.00
1207;BME280;593;53.184;8.216;2022-09-09T01:14:47;100382.53;;;17.36;100.00
1207;BME280;593;53.184;8.216;2022-09-09T01:22:12;100366.38;;;17.34;100.00
1207;BME280;593;53.184;8.216;2022-09-09T01:27:35;100367.53;;;17.33;100.00
1207;BME280;593;53.184;8.216;2022-09-09T01:30:09;100356.09;;;17.22;100.00
1207;BME280;593;53.184;8.216;2022-09-09T01:32:39;100369.00;;;17.30;100.00
1207;BME280;593;53.184;8.216;2022-09-09T01:37:51;100366.09;;;17.27;100.00
1207;BME280;593;53.184;8.216;2022-09-09T01:40:17;100362.22;;;17.28;100.00
1207;BME280;593;53.184;8.216;2022-09-09T01:42:43;100347.72;;;17.19;100.00
1207;BME280;593;53.184;8.216;2022-09-09T01:45:09;100360.13;;;17.25;100.00
1207;BME280;593;53.184;8.216;2022-09-09T01:47:35;100352.09;;;17.20;100.00
1207;BME280;593;53.184;8.216;2022-09-09T01:50:01;100352.09;;;17.20;100.00
1207;BME280;593;53.184;8.216;2022-09-09T01:52:28;100352.09;;;17.20;100.00
1207;BME280;593;53.184;8.216;2022-09-09T01:54:54;100342.91;;;17.16;100.00
1207;BME280;593;53.184;8.216;2022-09-09T01:57:31;100319.22;;;17.03;100.00
1207;BME280;593;53.184;8.216;2022-09-09T02:00:05;100349.34;;;17.20;100.00
1207;BME280;593;53.184;8.216;2022-09-09T02:02:39;100339.19;;;17.12;100.00
1207;BME280;593;53.184;8.216;2022-09-09T02:07:48;100350.00;;;17.17;100.00
1207;BME280;593;53.184;8.216;2022-09-09T02:12:47;100326.66;;;17.02;100.00
1207;BME280;593;53.184;8.216;2022-09-09T02:15:28;100339.06;;;17.08;100.00
1207;BME280;593;53.184;8.216;2022-09-09T02:17:58;100343.56;;;17.13;100.00
1207;BME280;593;53.184;8.216;2022-09-09T02:20:25;100329.41;;;17.02;100.00
1207;BME280;593;53.184;8.216;2022-09-09T02:22:53;100338.53;;;17.15;100.00
1207;BME280;593;53.184;8.216;2022-09-09T02:25:21;100344.22;;;17.10;100.00
1207;BME280;593;53.184;8.216;2022-09-09T02:27:49;100330.34;;;17.06;100.00
1207;BME280;593;53.184;8.216;2022-09-09T02:30:15;100327.47;;;17.03;100.00
1207;BME280;593;53.184;8.216;2022-09-09T02:32:42;100324.38;;;17.04;100.00
1207;BME280;593;53.184;8.216;2022-09-09T02:35:20;100331.97;;;17.07;100.00
1207;BME280;593;53.184;8.216;2022-09-09T02:37:50;100324.25;;;17.01;100.00
1207;BME280;593;53.184;8.216;2022-09-09T02:40:17;100327.94;;;17.05;100.00
1207;BME280;593;53.184;8.216;2022-09-09T02:42:44;100342.94;;;17.07;100.00
1207;BME280;593;53.184;8.216;2022-09-09T02:45:12;100343.75;;;17.08;100.00
1207;BME280;593;53.184;8.216;2022-09-09T02:50:56;100342.69;;;17.00;100.00
1207;BME280;593;53.184;8.216;2022-09-09T02:53:15;100342.47;;;17.05;100.00
1207;BME280;593;53.184;8.216;2022-09-09T02:55:58;100333.28;;;17.01;100.00
1207;BME280;593;53.184;8.216;2022-09-09T02:58:25;100343.75;;;17.08;100.00
1207;BME280;593;53.184;8.216;2022-09-09T03:00:51;100322.34;;;16.93;100.00
1207;BME280;593;53.184;8.216;2022-09-09T03:03:18;100342.13;;;17.07;100.00
1207;BME280;593;53.184;8.216;2022-09-09T03:05:45;100326.03;;;16.97;100.00
1207;BME280;593;53.184;8.216;2022-09-09T03:08:11;100350.38;;;17.07;100.00
1207;BME280;593;53.184;8.216;2022-09-09T03:10:36;100338.66;;;16.98;100.00
1207;BME280;593;53.184;8.216;2022-09-09T03:13:02;100342.03;;;17.03;100.00
1207;BME280;593;53.184;8.216;2022-09-09T03:15:29;100339.13;;;17.00;100.00
1207;BME280;593;53.184;8.216;2022-09-09T03:17:56;100341.66;;;17.05;100.00
1207;BME280;593;53.184;8.216;2022-09-09T03:20:26;100340.19;;;17.07;100.00
1207;BME280;593;53.184;8.216;2022-09-09T03:22:52;100339.59;;;17.02;100.00
1207;BME280;593;53.184;8.216;2022-09-09T03:25:18;100348.78;;;17.06;100.00
1207;BME280;593;53.184;8.216;2022-09-09T03:27:44;100336.84;;;17.02;100.00
1207;BME280;593;53.184;8.216;2022-09-09T03:30:09;100344.28;;;17.01;100.00
1207;BME280;593;53.184;8.216;2022-09-09T03:32:35;100341.88;;;17.00;100.00
1207;BME280;593;53.184;8.216;2022-09-09T03:35:00;100358.44;;;17.12;100.00
1207;BME280;593;53.184;8.216;2022-09-09T03:37:26;100353.13;;;17.07;100.00
1207;BME280;593;53.184;8.216;2022-09-09T03:39:51;100343.50;;;17.01;100.00
1207;BME280;593;53.184;8.216;2022-09-09T03:42:19;100350.84;;;17.09;100.00
1207;BME280;593;53.184;8.216;2022-09-09T03:44:45;100349.38;;;17.11;100.00
1207;BME280;593;53.184;8.216;2022-09-09T03:47:18;100340.06;;;17.04;100.00
1207;BME280;593;53.184;8.216;2022-09-09T03:49:45;100356.50;;;17.12;100.00
1207;BME280;593;53.184;8.216;2022-09-09T03:52:11;100364.75;;;17.12;100.00
1207;BME280;593;53.184;8.216;2022-09-09T03:54:36;100360.06;;;17.13;100.00
1207;BME280;593;53.184;8.216;2022-09-09T03:57:02;100351.19;;;17.07;100.00
1207;BME280;593;53.184;8.216;2022-09-09T03:59:28;100360.72;;;17.10;100.00
1207;BME280;593;53.184;8.216;2022-09-09T04:01:53;100354.75;;;17.08;100.00
1207;BME280;593;53.184;8.216;2022-09-09T04:04:19;100364.47;;;17.05;100.00
1207;BME280;593;53.184;8.216;2022-09-09T04:06:45;100364.94;;;17.07;100.00
1207;BME280;593;53.184;8.216;2022-09-09T04:09:11;100347.09;;;16.93;100.00
1207;BME280;593;53.184;8.216;2022-09-09T04:11:36;100371.56;;;17.06;100.00
1207;BME280;593;53.184;8.216;2022-09-09T04:14:02;100374.25;;;17.15;100.00
1207;BME280;593;53.184;8.216;2022-09-09T04:16:27;100377.34;;;17.13;100.00
1207;BME280;593;53.184;8.216;2022-09-09T04:18:52;100382.34;;;17.11;100.00
1207;BME280;593;53.184;8.216;2022-09-09T04:21:18;100362.38;;;17.02;100.00
1207;BME280;593;53.184;8.216;2022-09-09T04:23:43;100378.34;;;17.09;100.00
1207;BME280;593;53.184;8.216;2022-09-09T04:26:08;100383.97;;;17.12;100.00
1207;BME280;593;53.184;8.216;2022-09-09T04:28:36;100384.78;;;17.13;100.00
1207;BME280;593;53.184;8.216;2022-09-09T04:31:14;100380.44;;;17.12;100.00
1207;BME280;593;53.184;8.216;2022-09-09T04:33:40;100387.06;;;17.11;100.00
1207;BME280;593;53.184;8.216;2022-09-09T04:36:06;100371.72;;;17.10;100.00
1207;BME280;593;53.184;8.216;2022-09-09T04:38:31;100381.56;;;17.11;100.00
1207;BME280;593;53.184;8.216;2022-09-09T04:40:57;100370.97;;;17.01;100.00
1207;BME280;593;53.184;8.216;2022-09-09T04:43:22;100364.66;;;17.00;100.00
1207;BME280;593;53.184;8.216;2022-09-09T04:45:48;100379.69;;;17.03;100.00
1207;BME280;593;53.184;8.216;2022-09-09T04:48:14;100387.25;;;17.06;100.00
1207;BME280;593;53.184;8.216;2022-09-09T04:50:40;100374.03;;;16.99;100.00
1207;BME280;593;53.184;8.216;2022-09-09T04:53:06;100390.47;;;17.08;100.00
1207;BME280;593;53.184;8.216;2022-09-09T04:55:32;100387.59;;;17.04;100.00
1207;BME280;593;53.184;8.216;2022-09-09T04:58:07;100372.28;;;16.95;100.00
1207;BME280;593;53.184;8.216;2022-09-09T05:00:37;100381.66;;;16.94;100.00
1207;BME280;593;53.184;8.216;2022-09-09T05:03:03;100397.75;;;17.04;100.00
1207;BME280;593;53.184;8.216;2022-09-09T05:05:30;100394.72;;;16.97;100.00
1207;BME280;593;53.184;8.216;2022-09-09T05:08:03;100397.00;;;16.95;100.00
1207;BME280;593;53.184;8.216;2022-09-09T05:10:29;100397.47;;;16.97;100.00
1207;BME280;593;53.184;8.216;2022-09-09T05:12:55;100404.91;;;16.96;100.00
1207;BME280;593;53.184;8.216;2022-09-09T05:15:21;100404.59;;;16.98;100.00
1207;BME280;593;53.184;8.216;2022-09-09T05:17:46;100413.84;;;16.93;100.00
1207;BME280;593;53.184;8.216;2022-09-09T05:20:12;100414.16;;;16.92;100.00
1207;BME280;593;53.184;8.216;2022-09-09T05:22:37;100409.47;;;16.92;100.00
1207;BME280;593;53.184;8.216;2022-09-09T05:25:03;100417.56;;;16.89;100.00
1207;BME280;593;53.184;8.216;2022-09-09T05:27:28;100408.53;;;16.88;100.00
1207;BME280;593;53.184;8.216;2022-09-09T05:29:56;100421.13;;;16.89;100.00
1207;BME280;593;53.184;8.216;2022-09-09T05:32:22;100422.75;;;16.90;100.00
1207;BME280;593;53.184;8.216;2022-09-09T05:34:48;100411.28;;;16.88;100.00
1207;BME280;593;53.184;8.216;2022-09-09T05:37:13;100423.56;;;16.91;100.00
1207;BME280;593;53.184;8.216;2022-09-09T05:39:38;100423.06;;;16.89;100.00
1207;BME280;593;53.184;8.216;2022-09-09T05:42:04;100418.38;;;16.89;100.00
1207;BME280;593;53.184;8.216;2022-09-09T05:44:30;100392.91;;;16.72;100.00
1207;BME280;593;53.184;8.216;2022-09-09T05:46:56;100427.75;;;16.88;100.00
1207;BME280;593;53.184;8.216;2022-09-09T05:49:23;100417.44;;;16.85;100.00
1207;BME280;593;53.184;8.216;2022-09-09T05:51:48;100419.53;;;16.88;100.00
1207;BME280;593;53.184;8.216;2022-09-09T05:54:15;100417.91;;;16.87;100.00
1207;BME280;593;53.184;8.216;2022-09-09T05:56:41;100423.56;;;16.91;100.00
1207;BME280;593;53.184;8.216;2022-09-09T05:59:06;100430.63;;;16.92;100.00
1207;BME280;593;53.184;8.216;2022-09-09T06:01:34;100438.84;;;17.00;100.00
1207;BME280;593;53.184;8.216;2022-09-09T06:04:00;100434.50;;;16.99;100.00
1207;BME280;593;53.184;8.216;2022-09-09T06:06:36;100434.00;;;17.06;100.00
1207;BME280;593;53.184;8.216;2022-09-09T06:09:03;100433.19;;;17.05;100.00
1207;BME280;593;53.184;8.216;2022-09-09T06:11:32;100435.56;;;17.07;100.00
1207;BME280;593;53.184;8.216;2022-09-09T06:13:58;100430.56;;;17.09;100.00
1207;BME280;593;53.184;8.216;2022-09-09T06:16:25;100437.94;;;17.17;100.00
1207;BME280;593;53.184;8.216;2022-09-09T06:18:55;100434.09;;;17.18;100.00
1207;BME280;593;53.184;8.216;2022-09-09T06:21:34;100441.44;;;17.26;100.00
1207;BME280;593;53.184;8.216;2022-09-09T06:24:02;100437.91;;;17.25;100.00
1207;BME280;593;53.184;8.216;2022-09-09T06:26:38;100438.66;;;17.35;100.00
1207;BME280;593;53.184;8.216;2022-09-09T06:29:06;100436.06;;;17.38;100.00
1207;BME280;593;53.184;8.216;2022-09-09T06:31:33;100427.94;;;17.42;100.00
1207;BME280;593;53.184;8.216;2022-09-09T06:33:59;100425.34;;;17.45;100.00
1207;BME280;593;53.184;8.216;2022-09-09T06:36:30;100429.69;;;17.46;100.00
1207;BME280;593;53.184;8.216;2022-09-09T06:38:56;100426.72;;;17.51;100.00
1207;BME280;593;53.184;8.216;2022-09-09T06:41:24;100422.88;;;17.52;100.00
1207;BME280;593;53.184;8.216;2022-09-09T06:43:51;100421.56;;;17.58;100.00
1207;BME280;593;53.184;8.216;2022-09-09T06:46:18;100424.78;;;17.60;100.00
1207;BME280;593;53.184;8.216;2022-09-09T06:48:45;100422.63;;;17.66;100.00
1207;BME280;593;53.184;8.216;2022-09-09T06:51:15;100419.19;;;17.69;100.00
1207;BME280;593;53.184;8.216;2022-09-09T06:53:42;100417.72;;;17.71;100.00
1207;BME280;593;53.184;8.216;2022-09-09T06:58:34;100415.91;;;17.75;100.00
1207;BME280;593;53.184;8.216;2022-09-09T07:01:05;100416.72;;;17.76;100.00
1207;BME280;593;53.184;8.216;2022-09-09T07:03:31;100416.84;;;17.79;100.00
1207;BME280;593;53.184;8.216;2022-09-09T07:05:57;100428.47;;;17.85;100.00
1207;BME280;593;53.184;8.216;2022-09-09T07:08:23;100428.59;;;17.88;100.00
1207;BME280;593;53.184;8.216;2022-09-09T07:10:50;100427.44;;;17.89;100.00
1207;BME280;593;53.184;8.216;2022-09-09T07:13:16;100429.53;;;17.92;100.00
1207;BME280;593;53.184;8.216;2022-09-09T07:15:41;100436.44;;;17.99;100.00
1207;BME280;593;53.184;8.216;2022-09-09T07:18:08;100427.38;;;17.98;100.00
1207;BME280;593;53.184;8.216;2022-09-09T07:20:35;100435.44;;;18.03;100.00
1207;BME280;593;53.184;8.216;2022-09-09T07:23:00;100437.97;;;18.08;100.00
1207;BME280;593;53.184;8.216;2022-09-09T07:25:25;100434.00;;;18.18;100.00
1207;BME280;593;53.184;8.216;2022-09-09T07:27:55;100437.00;;;18.25;100.00
1207;BME280;593;53.184;8.216;2022-09-09T07:30:21;100436.53;;;18.23;100.00
1207;BME280;593;53.184;8.216;2022-09-09T07:32:46;100438.19;;;18.36;100.00
1207;BME280;593;53.184;8.216;2022-09-09T07:35:12;100436.34;;;18.40;100.00
1207;BME280;593;53.184;8.216;2022-09-09T07:37:37;100438.91;;;18.45;100.00
1207;BME280;593;53.184;8.216;2022-09-09T07:40:03;100440.66;;;18.49;100.00
1207;BME280;593;53.184;8.216;2022-09-09T07:42:29;100434.59;;;18.56;100.00
1207;BME280;593;53.184;8.216;2022-09-09T07:44:55;100442.16;;;18.59;100.00
1207;BME280;593;53.184;8.216;2022-09-09T07:47:20;100445.75;;;18.72;100.00
1207;BME280;593;53.184;8.216;2022-09-09T07:49:46;100439.56;;;18.75;100.00
1207;BME280;593;53.184;8.216;2022-09-09T07:52:11;100442.91;;;18.80;100.00
1207;BME280;593;53.184;8.216;2022-09-09T07:54:37;100442.31;;;18.87;100.00
1207;BME280;593;53.184;8.216;2022-09-09T07:57:03;100448.44;;;18.92;100.00
1207;BME280;593;53.184;8.216;2022-09-09T07:59:29;100442.91;;;18.92;100.00
1207;BME280;593;53.184;8.216;2022-09-09T08:01:55;100446.56;;;18.96;100.00
1207;BME280;593;53.184;8.216;2022-09-09T08:04:22;100446.84;;;19.03;100.00
1207;BME280;593;53.184;8.216;2022-09-09T08:06:49;100438.09;;;19.13;100.00
1207;BME280;593;53.184;8.216;2022-09-09T08:09:15;100436.94;;;19.14;100.00
1207;BME280;593;53.184;8.216;2022-09-09T08:11:41;100439.81;;;19.18;100.00
1207;BME280;593;53.184;8.216;2022-09-09T08:14:08;100447.88;;;19.23;100.00
1207;BME280;593;53.184;8.216;2022-09-09T08:16:37;100446.13;;;19.31;100.00
1207;BME280;593;53.184;8.216;2022-09-09T08:19:04;100443.03;;;19.32;100.00
1207;BME280;593;53.184;8.216;2022-09-09T08:21:33;100439.25;;;19.37;100.00
1207;BME280;593;53.184;8.216;2022-09-09T08:24:00;100436.63;;;19.40;100.00
1207;BME280;593;53.184;8.216;2022-09-09T08:26:35;100433.25;;;19.47;100.00
1207;BME280;593;53.184;8.216;2022-09-09T08:29:02;100429.38;;;19.48;100.00
1207;BME280;593;53.184;8.216;2022-09-09T08:31:31;100444.63;;;19.57;100.00
1207;BME280;593;53.184;8.216;2022-09-09T08:33:59;100445.56;;;19.61;100.00
1207;BME280;593;53.184;8.216;2022-09-09T08:36:26;100439.25;;;19.61;100.00
1207;BME280;593;53.184;8.216;2022-09-09T08:38:54;100442.09;;;19.64;100.00
1207;BME280;593;53.184;8.216;2022-09-09T08:50:05;100450.44;;;19.80;100.00
1207;BME280;593;53.184;8.216;2022-09-09T08:53:11;100450.56;;;19.83;100.00
1207;BME280;593;53.184;8.216;2022-09-09T08:55:52;100444.03;;;19.76;100.00
1207;BME280;593;53.184;8.216;2022-09-09T08:58:28;100453.31;;;19.83;100.00
1207;BME280;593;53.184;8.216;2022-09-09T09:01:17;100458.50;;;19.85;100.00
1207;BME280;593;53.184;8.216;2022-09-09T09:11:54;100467.91;;;19.96;100.00
1207;BME280;593;53.184;8.216;2022-09-09T09:14:25;100463.88;;;19.94;100.00
1207;BME280;593;53.184;8.216;2022-09-09T09:16:58;100468.59;;;19.93;100.00
1207;BME280;593;53.184;8.216;2022-09-09T09:19:26;100468.00;;;20.00;100.00
1207;BME280;593;53.184;8.216;2022-09-09T09:24:51;100483.97;;;20.06;100.00
1207;BME280;593;53.184;8.216;2022-09-09T09:30:19;100480.75;;;20.04;100.00
1207;BME280;593;53.184;8.216;2022-09-09T09:33:26;100475.44;;;20.11;100.00
1207;BME280;593;53.184;8.216;2022-09-09T09:35:53;100472.94;;;20.06;100.00
1207;BME280;593;53.184;8.216;2022-09-09T09:38:29;100477.84;;;20.13;100.00
1207;BME280;593;53.184;8.216;2022-09-09T09:40:56;100473.81;;;20.10;100.00
1207;BME280;593;53.184;8.216;2022-09-09T09:43:28;100475.53;;;20.15;100.00
1207;BME280;593;53.184;8.216;2022-09-09T09:45:53;100472.31;;;20.13;100.00
1207;BME280;593;53.184;8.216;2022-09-09T09:48:19;100470.81;;;20.15;100.00
1207;BME280;593;53.184;8.216;2022-09-09T09:50:50;100474.38;;;20.16;100.00
1207;BME280;593;53.184;8.216;2022-09-09T09:55:58;100475.06;;;20.25;100.00
1207;BME280;593;53.184;8.216;2022-09-09T09:58:25;100480.34;;;20.30;100.00
1207;BME280;593;53.184;8.216;2022-09-09T10:00:52;100476.88;;;20.33;100.00
1207;BME280;593;53.184;8.216;2022-09-09T10:03:32;100472.97;;;20.34;100.00
1207;BME280;593;53.184;8.216;2022-09-09T10:06:02;100482.16;;;20.38;100.00
1207;BME280;593;53.184;8.216;2022-09-09T10:08:28;100471.22;;;20.41;100.00
1207;BME280;593;53.184;8.216;2022-09-09T10:16:08;100466.69;;;20.49;100.00
1207;BME280;593;53.184;8.216;2022-09-09T10:27:13;100466.69;;;20.65;100.00
1207;BME280;593;53.184;8.216;2022-09-09T10:33:09;100463.66;;;20.70;100.00
1207;BME280;593;53.184;8.216;2022-09-09T10:43:46;100473.59;;;20.86;100.00
1207;BME280;593;53.184;8.216;2022-09-09T10:46:34;100471.72;;;20.90;100.00
1207;BME280;593;53.184;8.216;2022-09-09T10:51:57;100472.59;;;20.94;100.00
1207;BME280;593;53.184;8.216;2022-09-09T10:54:37;100476.28;;;20.98;100.00
1207;BME280;593;53.184;8.216;2022-09-09T10:57:16;100468.31;;;20.97;99.13
1207;BME280;593;53.184;8.216;2022-09-09T10:59:48;100473.13;;;21.00;99.10
1207;BME280;593;53.184;8.216;2022-09-09T11:02:32;100469.81;;;21.06;99.63
1207;BME280;593;53.184;8.216;2022-09-09T11:05:14;100459.31;;;21.00;100.00
1207;BME280;593;53.184;8.216;2022-09-09T11:07:55;100465.59;;;21.13;100.00
1207;BME280;593;53.184;8.216;2022-09-09T11:16:12;100468.63;;;21.23;97.50
1207;BME280;593;53.184;8.216;2022-09-09T11:18:41;100472.19;;;21.24;96.27
1207;BME280;593;53.184;8.216;2022-09-09T11:21:16;100469.44;;;21.24;96.58
1207;BME280;593;53.184;8.216;2022-09-09T11:23:49;100476.22;;;21.26;95.65
1207;BME280;593;53.184;8.216;2022-09-09T11:26:21;100463.53;;;21.25;95.69
1207;BME280;593;53.184;8.216;2022-09-09T11:31:40;100472.47;;;21.34;96.19
1207;BME280;593;53.184;8.216;2022-09-09T11:34:15;100477.63;;;21.36;95.33
1207;BME280;593;53.184;8.216;2022-09-09T11:37:00;100476.47;;;21.37;95.63
1207;BME280;593;53.184;8.216;2022-09-09T11:39:48;100472.25;;;21.43;96.03
1207;BME280;593;53.184;8.216;2022-09-09T11:42:22;100475.91;;;21.47;96.28
1207;BME280;593;53.184;8.216;2022-09-09T11:44:49;100476.34;;;21.49;96.80
1207;BME280;593;53.184;8.216;2022-09-09T11:47:29;100468.66;;;21.58;96.25
1207;BME280;593;53.184;8.216;2022-09-09T11:50:34;100474.28;;;21.61;96.21
1207;BME280;593;53.184;8.216;2022-09-09T11:53:26;100471.56;;;21.65;97.10
1207;BME280;593;53.184;8.216;2022-09-09T11:56:10;100462.97;;;21.70;96.68
1207;BME280;593;53.184;8.216;2022-09-09T11:58:43;100466.19;;;21.72;96.48
1207;BME280;593;53.184;8.216;2022-09-09T12:06:32;100449.38;;;21.81;96.12
1207;BME280;593;53.184;8.216;2022-09-09T12:09:07;100450.25;;;21.85;96.62
1207;BME280;593;53.184;8.216;2022-09-09T12:11:33;100467.41;;;21.90;96.21
1207;BME280;593;53.184;8.216;2022-09-09T12:14:00;100465.44;;;21.91;96.52
1207;BME280;593;53.184;8.216;2022-09-09T12:16:35;100466.25;;;21.91;97.46
1207;BME280;593;53.184;8.216;2022-09-09T12:19:23;100471.84;;;21.95;99.41
1207;BME280;593;53.184;8.216;2022-09-09T12:22:00;100472.31;;;21.97;99.40
1207;BME280;593;53.184;8.216;2022-09-09T12:24:35;100479.09;;;21.99;100.00
1207;BME280;593;53.184;8.216;2022-09-09T12:27:14;100479.53;;;22.01;100.00
1207;BME280;593;53.184;8.216;2022-09-09T12:29:53;100479.88;;;22.00;100.00
1207;BME280;593;53.184;8.216;2022-09-09T12:32:23;100478.00;;;22.04;100.00
1207;BME280;593;53.184;8.216;2022-09-09T12:37:31;100474.94;;;22.09;100.00
1207;BME280;593;53.184;8.216;2022-09-09T12:40:02;100471.81;;;22.10;100.00
1207;BME280;593;53.184;8.216;2022-09-09T12:42:29;100472.19;;;22.09;100.00
1207;BME280;593;53.184;8.216;2022-09-09T12:44:57;100468.22;;;22.10;100.00
1207;BME280;593;53.184;8.216;2022-09-09T12:47:40;100476.19;;;22.11;100.00
1207;BME280;593;53.184;8.216;2022-09-09T12:50:48;100470.69;;;22.15;100.00
1207;BME280;593;53.184;8.216;2022-09-09T12:53:23;100452.84;;;22.12;100.00
1207;BME280;593;53.184;8.216;2022-09-09T12:56:00;100467.94;;;22.15;100.00
1207;BME280;593;53.184;8.216;2022-09-09T12:58:28;100445.34;;;22.13;100.00
1207;BME280;593;53.184;8.216;2022-09-09T13:00:58;100437.03;;;22.13;100.00
1207;BME280;593;53.184;8.216;2022-09-09T13:05:53;100440.69;;;22.17;100.00
1207;BME280;593;53.184;8.216;2022-09-09T13:08:25;100436.28;;;22.16;100.00
1207;BME280;593;53.184;8.216;2022-09-09T13:10:58;100435.50;;;22.15;100.00
1207;BME280;593;53.184;8.216;2022-09-09T13:16:00;100443.38;;;22.13;100.00
1207;BME280;593;53.184;8.216;2022-09-09T13:18:31;100428.13;;;22.04;100.00
1207;BME280;593;53.184;8.216;2022-09-09T13:20:59;100442.34;;;22.02;100.00
1207;BME280;593;53.184;8.216;2022-09-09T13:23:28;100424.75;;;21.95;100.00
1207;BME280;593;53.184;8.216;2022-09-09T13:26:26;100458.25;;;22.05;99.66
1207;BME280;593;53.184;8.216;2022-09-09T13:28:54;100453.78;;;22.01;96.87
1207;BME280;593;53.184;8.216;2022-09-09T13:31:23;100467.13;;;21.95;97.03
1207;BME280;593;53.184;8.216;2022-09-09T13:33:49;100464.72;;;21.94;97.82
1207;BME280;593;53.184;8.216;2022-09-09T13:36:15;100447.75;;;21.80;98.32
1207;BME280;593;53.184;8.216;2022-09-09T13:38:55;100458.13;;;21.83;97.68
1207;BME280;593;53.184;8.216;2022-09-09T13:41:22;100459.66;;;21.80;98.37
1207;BME280;593;53.184;8.216;2022-09-09T13:43:49;100471.53;;;21.81;99.03
1207;BME280;593;53.184;8.216;2022-09-09T13:49:41;100463.59;;;21.79;97.92
1207;BME280;593;53.184;8.216;2022-09-09T13:51:47;100480.56;;;21.78;98.41
1207;BME280;593;53.184;8.216;2022-09-09T13:54:15;100460.59;;;21.68;99.01
1207;BME280;593;53.184;8.216;2022-09-09T13:56:41;100474.50;;;21.72;99.78
1207;BME280;593;53.184;8.216;2022-09-09T13:59:13;100467.72;;;21.69;100.00
1207;BME280;593;53.184;8.216;2022-09-09T14:01:39;100469.75;;;21.72;100.00
1207;BME280;593;53.184;8.216;2022-09-09T14:04:04;100476.13;;;21.73;99.78
1207;BME280;593;53.184;8.216;2022-09-09T14:06:34;100476.38;;;21.68;100.00
1207;BME280;593;53.184;8.216;2022-09-09T14:09:02;100463.63;;;21.63;100.00
1207;BME280;593;53.184;8.216;2022-09-09T14:11:27;100467.28;;;21.67;98.65
1207;BME280;593;53.184;8.216;2022-09-09T14:13:53;100470.47;;;21.69;98.47
1207;BME280;593;53.184;8.216;2022-09-09T14:16:18;100471.84;;;21.60;96.66
1207;BME280;593;53.184;8.216;2022-09-09T14:18:45;100448.03;;;21.55;96.49
1207;BME280;593;53.184;8.216;2022-09-09T14:21:11;100456.34;;;21.55;95.39
1207;BME280;593;53.184;8.216;2022-09-09T14:23:37;100463.19;;;21.61;95.07
1207;BME280;593;53.184;8.216;2022-09-09T14:26:04;100454.72;;;21.54;93.52
1207;BME280;593;53.184;8.216;2022-09-09T14:28:29;100437.94;;;21.47;92.85
1207;BME280;593;53.184;8.216;2022-09-09T14:30:54;100455.53;;;21.55;89.79
1207;BME280;593;53.184;8.216;2022-09-09T14:33:20;100443.84;;;21.46;89.90
1207;BME280;593;53.184;8.216;2022-09-09T14:35:46;100441.91;;;21.46;90.48
1207;BME280;593;53.184;8.216;2022-09-09T14:38:11;100451.44;;;21.49;91.18
1207;BME280;593;53.184;8.216;2022-09-09T14:40:37;100447.06;;;21.48;92.53
1207;BME280;593;53.184;8.216;2022-09-09T14:43:04;100438.22;;;21.42;92.00
1207;BME280;593;53.184;8.216;2022-09-09T14:45:30;100442.69;;;21.47;92.12
1207;BME280;593;53.184;8.216;2022-09-09T14:47:56;100433.16;;;21.44;92.17
1207;BME280;593;53.184;8.216;2022-09-09T14:50:22;100427.44;;;21.37;92.49
1207;BME280;593;53.184;8.216;2022-09-09T14:52:48;100443.47;;;21.47;92.28
1207;BME280;593;53.184;8.216;2022-09-09T14:55:14;100421.47;;;21.35;91.17
1207;BME280;593;53.184;8.216;2022-09-09T14:57:40;100422.66;;;21.34;91.65
1207;BME280;593;53.184;8.216;2022-09-09T15:00:06;100427.38;;;21.34;92.03
1207;BME280;593;53.184;8.216;2022-09-09T15:02:32;100435.47;;;21.42;91.94
1207;BME280;593;53.184;8.216;2022-09-09T15:04:57;100428.78;;;21.43;92.61
1207;BME280;593;53.184;8.216;2022-09-09T15:07:23;100442.53;;;21.40;92.58
1207;BME280;593;53.184;8.216;2022-09-09T15:09:49;100428.19;;;21.34;91.76
1207;BME280;593;53.184;8.216;2022-09-09T15:12:15;100432.53;;;21.35;92.16
1207;BME280;593;53.184;8.216;2022-09-09T15:14:40;100421.75;;;21.30;92.70
1207;BME280;593;53.184;8.216;2022-09-09T15:17:06;100436.53;;;21.38;92.64